Flight Briefing for CPX337

Departure Arrival
Fort Worth Alliance Airport (KAFW)
Click to view FAA NOTAMS
Miami International Airport (KMIA)
Click to view FAA NOTAMS
Departure Time Arrival Time
N/A N/A
Aircraft Distance
B767-300BDSF 989nm
Departure METAR Arrival METAR
KAFW 252253Z 02011KT 10SM CLR 22/08 A3018 RMK AO2 SLP215 T02170078 KMIA 252253Z 12010KT 10SM FEW025 FEW042 FEW250 25/19 A3002 RMK AO2 SLP164 T02500194
Suggested Route
KUSSO5 ZALEA SWB HRV Q105 BLVNS Y290 BAGGS SSCOT5


View recent IFR Routes data
Notes



Charts and Procedures

Charts for KAFW
No chart available
Charts for KMIA
No chart available

Windy.com Weather Map